Time;durP1;ratioP1;P1;durP2;ratioP2;P2;SDS_P1;SDS_P2;PMS_P1;PMS_P2;Temp;Humidity;BMP_temperature;BMP_pressure;BME280_temperature;BME280_humidity;BME280_pressure;Samples;Min_cycle;Max_cycle;Signal;HPM_P1;HPM_P2
2023/06/14 00:02:12;;;;;;;6.70;2.97;;;17.40;65.20;;;;;;5054408;28;20098;-51
2023/06/14 00:04:41;;;;;;;5.63;2.75;;;17.40;65.60;;;;;;5054454;28;20436;-52
2023/06/14 00:07:08;;;;;;;8.80;2.60;;;17.30;65.70;;;;;;5054207;28;20071;-47
2023/06/14 00:09:37;;;;;;;6.25;2.88;;;17.30;66.20;;;;;;5054292;28;20044;-48
2023/06/14 00:12:06;;;;;;;7.72;3.03;;;17.20;66.60;;;;;;5053908;28;20040;-47
2023/06/14 00:14:33;;;;;;;6.72;3.08;;;17.20;67.20;;;;;;5053938;28;20036;-48
2023/06/14 00:17:01;;;;;;;8.93;3.00;;;17.10;67.40;;;;;;5053791;28;20037;-47
2023/06/14 00:19:29;;;;;;;7.03;3.15;;;17.10;67.80;;;;;;5053646;28;20045;-48
2023/06/14 00:21:56;;;;;;;10.00;3.45;;;17.00;67.90;;;;;;5052274;28;20058;-48
2023/06/14 00:24:23;;;;;;;5.53;3.45;;;17.00;68.60;;;;;;5053902;28;20052;-47
2023/06/14 00:26:50;;;;;;;8.23;2.85;;;17.00;68.70;;;;;;5054107;28;20052;-47
2023/06/14 00:29:17;;;;;;;7.60;3.53;;;16.90;68.70;;;;;;5054344;28;20087;-47
2023/06/14 00:31:44;;;;;;;7.95;3.67;;;16.90;68.70;;;;;;5052883;28;20052;-47
2023/06/14 00:34:11;;;;;;;5.18;3.40;;;16.80;69.20;;;;;;5052599;28;20391;-47
2023/06/14 00:36:40;;;;;;;5.90;3.05;;;16.60;69.60;;;;;;5052399;28;20515;-52
2023/06/14 00:39:07;;;;;;;7.85;2.88;;;16.60;69.80;;;;;;5053872;28;20040;-47
2023/06/14 00:41:35;;;;;;;7.50;2.67;;;16.50;70.10;;;;;;5052211;28;20431;-46
2023/06/14 00:44:01;;;;;;;6.80;2.85;;;16.50;70.40;;;;;;5052400;28;20059;-48
2023/06/14 00:46:29;;;;;;;6.75;2.80;;;16.50;71.00;;;;;;5053538;28;20044;-49
2023/06/14 00:48:56;;;;;;;5.78;3.30;;;16.40;70.80;;;;;;5053533;28;20037;-47
2023/06/14 00:51:23;;;;;;;5.03;2.78;;;16.40;71.10;;;;;;5035769;28;20083;-47
2023/06/14 00:53:50;;;;;;;7.55;3.25;;;16.30;71.00;;;;;;5052175;28;20055;-47
2023/06/14 00:56:16;;;;;;;6.78;2.95;;;16.30;71.20;;;;;;5052051;28;20048;-47
2023/06/14 00:58:43;;;;;;;10.60;3.00;;;16.10;71.20;;;;;;5053292;28;20065;-46
2023/06/14 01:01:10;;;;;;;7.57;2.97;;;16.00;71.60;;;;;;5052367;28;20590;-47
2023/06/14 01:03:37;;;;;;;6.00;2.60;;;15.90;72.10;;;;;;5054642;28;20083;-46
2023/06/14 01:06:04;;;;;;;6.45;2.60;;;15.90;72.80;;;;;;5059934;28;20541;-49
2023/06/14 01:08:32;;;;;;;4.68;2.70;;;15.80;73.10;;;;;;5058523;28;20128;-49
2023/06/14 01:10:58;;;;;;;6.95;2.90;;;15.70;73.40;;;;;;5060269;28;20169;-47
2023/06/14 01:13:25;;;;;;;7.20;2.90;;;15.70;73.90;;;;;;5059912;28;20431;-47
2023/06/14 01:15:52;;;;;;;7.45;2.85;;;15.70;74.60;;;;;;5059588;28;20380;-46
2023/06/14 01:18:20;;;;;;;5.13;2.78;;;15.60;75.10;;;;;;5058911;28;20043;-47
2023/06/14 01:20:50;;;;;;;4.18;2.65;;;15.60;75.40;;;;;;5059824;28;20041;-46
2023/06/14 01:23:17;;;;;;;8.50;2.80;;;15.50;77.10;;;;;;5059963;28;20041;-50
2023/06/14 01:25:44;;;;;;;5.32;2.72;;;15.50;77.50;;;;;;5060118;28;20052;-51
2023/06/14 01:28:12;;;;;;;9.15;3.10;;;15.30;79.10;;;;;;5042069;28;20053;-49
2023/06/14 01:30:39;;;;;;;7.63;3.00;;;15.30;78.90;;;;;;5059702;28;20041;-50
2023/06/14 01:33:06;;;;;;;7.47;3.03;;;15.30;79.90;;;;;;5059887;28;20040;-48
2023/06/14 01:35:33;;;;;;;8.20;3.30;;;15.20;80.90;;;;;;5058450;28;20033;-51
2023/06/14 01:38:01;;;;;;;7.22;2.67;;;15.20;81.90;;;;;;5059704;28;20041;-51
2023/06/14 01:40:28;;;;;;;6.25;2.95;;;15.10;83.90;;;;;;5058852;28;20509;-49
2023/06/14 01:42:56;;;;;;;6.88;2.83;;;15.00;85.10;;;;;;5058228;28;20373;-54
2023/06/14 01:45:22;;;;;;;11.15;2.92;;;14.90;86.80;;;;;;5058431;28;20041;-49
2023/06/14 01:47:50;;;;;;;10.15;3.20;;;14.80;87.90;;;;;;5059508;28;20048;-49
2023/06/14 01:50:17;;;;;;;10.73;3.03;;;14.80;88.70;;;;;;5059546;28;20124;-47
2023/06/14 01:52:44;;;;;;;8.95;3.00;;;14.80;89.00;;;;;;5058040;28;20542;-47
2023/06/14 01:55:11;;;;;;;10.30;2.95;;;14.70;89.90;;;;;;5057929;28;20045;-46
2023/06/14 01:57:38;;;;;;;8.63;2.90;;;14.70;90.20;;;;;;5059789;28;20061;-51
2023/06/14 02:00:08;;;;;;;6.97;3.03;;;14.60;90.00;;;;;;5058368;28;20455;-52
2023/06/14 02:02:38;;;;;;;6.60;3.00;;;14.70;90.20;;;;;;5059812;28;20535;-50
2023/06/14 02:05:05;;;;;;;9.10;3.17;;;14.60;90.40;;;;;;5058095;28;20041;-48
2023/06/14 02:07:33;;;;;;;7.32;2.78;;;14.60;90.60;;;;;;5058312;28;20040;-47
2023/06/14 02:10:00;;;;;;;7.90;3.30;;;14.60;90.80;;;;;;5058030;28;20492;-49
2023/06/14 02:12:26;;;;;;;11.02;3.22;;;14.60;91.00;;;;;;5058300;28;20128;-47
2023/06/14 02:14:56;;;;;;;6.07;3.22;;;14.50;91.40;;;;;;5056398;28;20083;-49
2023/06/14 02:17:23;;;;;;;11.13;3.38;;;14.50;92.30;;;;;;5056174;28;20037;-52
2023/06/14 02:19:50;;;;;;;9.70;3.35;;;14.40;92.50;;;;;;5055120;28;20048;-50
2023/06/14 02:22:17;;;;;;;6.82;2.78;;;14.40;92.70;;;;;;5056028;28;20044;-50
2023/06/14 02:24:45;;;;;;;8.18;3.15;;;14.30;93.00;;;;;;5055056;28;20045;-54
2023/06/14 02:27:12;;;;;;;10.07;3.33;;;14.30;93.10;;;;;;5055274;28;20040;-52
2023/06/14 02:29:38;;;;;;;7.28;3.10;;;14.30;93.10;;;;;;5054989;28;20110;-52
2023/06/14 02:32:07;;;;;;;11.80;3.28;;;14.30;93.40;;;;;;5055042;28;20053;-53
2023/06/14 02:34:34;;;;;;;12.57;3.58;;;14.40;93.50;;;;;;5055923;28;20051;-53
2023/06/14 02:37:02;;;;;;;9.70;3.50;;;14.40;93.90;;;;;;5055947;28;20430;-53
2023/06/14 02:39:29;;;;;;;9.85;3.58;;;14.30;94.30;;;;;;5056199;28;20060;-53
2023/06/14 02:41:56;;;;;;;9.32;3.67;;;14.20;94.80;;;;;;5054633;28;20032;-51
2023/06/14 02:44:23;;;;;;;10.02;3.45;;;14.20;94.90;;;;;;5055976;28;20436;-53
2023/06/14 02:46:50;;;;;;;9.50;3.67;;;14.20;94.90;;;;;;5055940;28;20048;-52
2023/06/14 02:49:17;;;;;;;10.20;3.75;;;14.20;95.20;;;;;;5054251;28;20052;-53
2023/06/14 02:51:44;;;;;;;9.95;3.50;;;14.10;95.50;;;;;;5055719;28;20037;-53
2023/06/14 02:54:11;;;;;;;13.38;3.60;;;14.00;95.70;;;;;;5054970;28;20041;-50
2023/06/14 02:56:38;;;;;;;11.45;3.80;;;14.00;96.10;;;;;;5054490;28;20037;-51
2023/06/14 02:59:05;;;;;;;10.43;3.70;;;14.00;96.10;;;;;;5054128;28;20079;-48
2023/06/14 03:01:35;;;;;;;13.07;4.00;;;14.00;96.10;;;;;;5055397;28;20487;-50
2023/06/14 03:04:06;;;;;;;12.15;4.00;;;14.00;96.40;;;;;;5054218;28;20114;-51
2023/06/14 03:06:35;;;;;;;12.32;3.83;;;14.00;96.50;;;;;;5054014;28;20551;-53
2023/06/14 03:09:05;;;;;;;11.23;3.95;;;14.00;96.60;;;;;;5053897;28;20049;-50
2023/06/14 03:11:35;;;;;;;13.05;3.90;;;14.00;96.70;;;;;;5053894;28;20087;-52
2023/06/14 03:14:06;;;;;;;7.82;3.40;;;14.00;96.90;;;;;;5053921;28;20041;-51
2023/06/14 03:16:37;;;;;;;10.23;3.58;;;14.00;96.90;;;;;;5053856;28;20041;-53
2023/06/14 03:19:04;;;;;;;9.13;4.20;;;13.90;97.10;;;;;;5053756;28;20044;-49
2023/06/14 03:21:34;;;;;;;12.65;3.90;;;13.90;97.20;;;;;;5070601;28;20037;-49
2023/06/14 03:24:03;;;;;;;14.50;4.28;;;13.90;97.10;;;;;;5054062;28;20102;-48
2023/06/14 03:26:33;;;;;;;9.35;3.75;;;14.00;97.30;;;;;;5052824;28;20048;-52
2023/06/14 03:29:01;;;;;;;7.93;4.05;;;13.90;97.30;;;;;;5053855;28;20145;-53
2023/06/14 03:31:32;;;;;;;11.70;4.00;;;13.90;97.40;;;;;;5070332;28;20047;-51
2023/06/14 03:34:01;;;;;;;9.52;3.53;;;13.90;97.40;;;;;;5053572;28;20084;-51
2023/06/14 03:36:28;;;;;;;7.63;4.10;;;13.90;97.60;;;;;;5070014;28;20040;-52
2023/06/14 03:38:55;;;;;;;12.00;3.50;;;13.90;97.60;;;;;;5054877;28;20055;-50
2023/06/14 03:41:23;;;;;;;12.38;4.00;;;13.90;97.60;;;;;;5037465;28;20041;-51
2023/06/14 03:43:50;;;;;;;7.45;3.90;;;13.90;97.70;;;;;;5053027;28;20400;-54
2023/06/14 03:46:17;;;;;;;9.10;4.03;;;13.90;97.70;;;;;;5054440;28;20072;-52
2023/06/14 03:48:45;;;;;;;10.70;3.55;;;13.80;98.00;;;;;;5069953;28;20068;-49
2023/06/14 03:51:12;;;;;;;9.05;4.10;;;13.80;97.90;;;;;;5053595;28;20043;-48
2023/06/14 03:53:40;;;;;;;11.88;4.63;;;13.70;98.10;;;;;;5053146;28;20049;-52
2023/06/14 03:56:27;;;;;;;9.43;4.07;;;13.70;98.30;;;;;;5053033;28;20048;-49
2023/06/14 03:58:55;;;;;;;9.88;3.47;;;13.70;98.50;;;;;;5052955;28;20051;-51
2023/06/14 04:01:27;;;;;;;10.50;4.45;;;13.70;98.60;;;;;;5069594;28;20494;-49
2023/06/14 04:03:54;;;;;;;11.88;4.18;;;13.70;98.70;;;;;;5053408;28;20041;-47
2023/06/14 04:06:21;;;;;;;9.20;3.90;;;13.60;98.80;;;;;;5054301;28;20538;-49
2023/06/14 04:08:49;;;;;;;12.32;4.25;;;13.70;98.80;;;;;;5069432;28;20529;-48
2023/06/14 04:11:16;;;;;;;11.82;4.20;;;13.60;98.90;;;;;;5052792;28;20045;-49
2023/06/14 04:13:42;;;;;;;13.27;5.18;;;13.60;99.10;;;;;;5054510;28;20080;-52
2023/06/14 04:16:09;;;;;;;9.60;4.40;;;13.60;99.00;;;;;;5052724;28;20488;-53
2023/06/14 04:18:36;;;;;;;11.70;5.15;;;13.60;99.20;;;;;;5069785;28;20045;-46
2023/06/14 04:21:04;;;;;;;10.77;4.30;;;13.60;99.20;;;;;;5069359;28;20055;-48
2023/06/14 04:23:32;;;;;;;10.55;4.75;;;13.60;99.20;;;;;;5052957;28;20053;-50
2023/06/14 04:26:02;;;;;;;11.52;4.30;;;13.60;99.40;;;;;;5036914;28;20076;-47
2023/06/14 04:28:29;;;;;;;10.80;3.97;;;13.60;99.40;;;;;;5052458;28;20052;-46
2023/06/14 04:31:01;;;;;;;11.80;4.78;;;13.60;99.50;;;;;;5052510;28;20439;-49
2023/06/14 04:33:31;;;;;;;11.52;4.40;;;13.70;99.50;;;;;;5052363;28;20079;-46
2023/06/14 04:35:59;;;;;;;10.13;4.35;;;13.80;99.40;;;;;;5052694;28;20049;-50
2023/06/14 04:38:28;;;;;;;11.70;4.20;;;13.90;99.30;;;;;;5052115;28;20131;-49
2023/06/14 04:40:56;;;;;;;7.80;4.60;;;14.10;99.20;;;;;;5069087;28;20048;-51
2023/06/14 04:43:25;;;;;;;12.63;5.00;;;14.20;99.00;;;;;;5052693;28;20040;-51
2023/06/14 04:45:56;;;;;;;10.35;4.18;;;14.30;98.80;;;;;;5053548;28;20041;-52
2023/06/14 04:48:24;;;;;;;11.48;4.50;;;14.40;98.60;;;;;;5053001;28;20131;-54
2023/06/14 04:50:52;;;;;;;10.07;4.28;;;14.50;98.70;;;;;;5053681;28;20068;-52
2023/06/14 04:53:22;;;;;;;9.20;4.15;;;14.60;98.50;;;;;;5053487;28;20037;-51
2023/06/14 04:55:52;;;;;;;7.53;3.45;;;14.70;98.10;;;;;;5053819;28;20128;-52
2023/06/14 04:58:20;;;;;;;8.93;4.03;;;14.80;98.10;;;;;;5051964;28;20049;-46
2023/06/14 05:00:47;;;;;;;10.23;4.15;;;14.90;98.00;;;;;;5053177;28;20048;-49
2023/06/14 05:03:14;;;;;;;9.98;3.97;;;14.90;98.10;;;;;;5052033;28;20052;-47
2023/06/14 05:05:41;;;;;;;12.02;4.35;;;14.90;98.00;;;;;;5052259;28;20094;-51
2023/06/14 05:08:08;;;;;;;9.05;4.10;;;15.00;98.10;;;;;;5052222;28;20514;-47
2023/06/14 05:10:36;;;;;;;12.18;4.50;;;15.00;97.90;;;;;;5053400;28;20044;-52
2023/06/14 05:13:03;;;;;;;12.20;4.60;;;15.10;97.90;;;;;;5052542;28;20037;-50
2023/06/14 05:15:30;;;;;;;8.38;4.45;;;15.20;97.80;;;;;;5052061;28;20045;-51
2023/06/14 05:17:57;;;;;;;12.18;4.55;;;15.20;97.90;;;;;;5053290;28;20067;-49
2023/06/14 05:20:24;;;;;;;14.45;4.72;;;15.20;98.00;;;;;;5053469;28;20037;-50
2023/06/14 05:22:52;;;;;;;10.70;4.80;;;15.20;98.10;;;;;;5053168;28;20067;-51
2023/06/14 05:25:19;;;;;;;11.90;3.85;;;15.30;98.20;;;;;;5052055;28;20041;-50
2023/06/14 05:27:46;;;;;;;10.30;4.45;;;15.40;97.90;;;;;;5053783;28;20446;-50
2023/06/14 05:30:13;;;;;;;12.50;4.20;;;15.40;97.90;;;;;;5053760;28;20040;-53
2023/06/14 05:32:39;;;;;;;11.45;5.05;;;15.40;98.20;;;;;;5052828;28;20044;-57
2023/06/14 05:35:06;;;;;;;11.93;5.07;;;15.60;98.00;;;;;;5053162;28;20124;-49
2023/06/14 05:37:33;;;;;;;11.95;4.43;;;15.60;97.90;;;;;;5053024;28;20041;-48
2023/06/14 05:40:00;;;;;;;12.48;4.55;;;15.60;97.90;;;;;;5053745;28;20120;-50
2023/06/14 05:42:26;;;;;;;18.50;4.80;;;15.70;97.80;;;;;;5053547;28;20049;-48
2023/06/14 05:44:53;;;;;;;14.80;5.10;;;15.80;97.70;;;;;;5053460;28;20041;-53
2023/06/14 05:47:20;;;;;;;12.27;4.78;;;15.70;97.80;;;;;;5053190;28;20123;-51
2023/06/14 05:49:47;;;;;;;12.68;4.95;;;15.90;97.90;;;;;;5053512;28;20073;-50
2023/06/14 05:52:14;;;;;;;12.02;4.57;;;15.90;97.70;;;;;;5057043;28;20052;-51
2023/06/14 05:54:41;;;;;;;17.25;5.50;;;16.00;97.60;;;;;;5057145;28;20045;-49
2023/06/14 05:57:08;;;;;;;13.50;5.28;;;16.00;97.60;;;;;;5056663;28;20041;-52
2023/06/14 05:59:34;;;;;;;19.85;5.57;;;16.10;97.70;;;;;;5056889;28;20045;-53
2023/06/14 06:02:01;;;;;;;14.93;5.05;;;16.10;97.70;;;;;;5056606;28;20460;-48
2023/06/14 06:04:29;;;;;;;13.30;5.70;;;16.30;97.60;;;;;;5057024;28;20052;-51
2023/06/14 06:06:56;;;;;;;13.45;5.35;;;16.50;97.30;;;;;;5055869;28;20124;-48
2023/06/14 06:09:23;;;;;;;14.70;5.03;;;16.50;97.30;;;;;;5057239;28;20041;-46
2023/06/14 06:11:50;;;;;;;11.63;5.32;;;16.50;97.30;;;;;;5056937;28;20037;-49
2023/06/14 06:14:20;;;;;;;15.27;5.63;;;16.50;97.40;;;;;;5056665;28;20037;-51
2023/06/14 06:16:46;;;;;;;16.13;4.88;;;16.50;97.60;;;;;;5055351;28;20095;-50
2023/06/14 06:19:13;;;;;;;12.80;4.93;;;16.50;97.30;;;;;;5055186;28;20495;-46
2023/06/14 06:21:40;;;;;;;12.60;5.30;;;16.40;97.50;;;;;;5055625;28;20522;-49
2023/06/14 06:24:07;;;;;;;13.98;5.40;;;16.40;97.60;;;;;;5055360;28;20052;-48
2023/06/14 06:26:34;;;;;;;11.25;5.18;;;16.50;97.50;;;;;;5055645;28;20062;-52
2023/06/14 06:29:01;;;;;;;15.75;5.63;;;16.50;97.60;;;;;;5055373;28;20071;-50
2023/06/14 06:31:28;;;;;;;13.95;4.80;;;16.40;97.60;;;;;;5055624;28;20087;-53
2023/06/14 06:33:54;;;;;;;11.93;4.90;;;16.30;98.00;;;;;;5055568;28;20495;-48
2023/06/14 06:36:21;;;;;;;14.88;5.45;;;16.40;98.00;;;;;;5055346;28;20048;-45
2023/06/14 06:38:48;;;;;;;13.75;5.65;;;16.30;98.00;;;;;;5055085;28;20064;-51
2023/06/14 06:41:15;;;;;;;16.55;5.55;;;16.30;98.00;;;;;;5055029;28;20044;-49
2023/06/14 06:43:42;;;;;;;12.82;5.63;;;16.30;98.10;;;;;;5055280;28;20539;-49
2023/06/14 06:46:09;;;;;;;14.45;5.53;;;16.30;98.30;;;;;;5053794;28;20064;-48
2023/06/14 06:48:36;;;;;;;17.00;5.55;;;16.30;98.20;;;;;;5054998;28;20072;-52
2023/06/14 06:51:02;;;;;;;13.05;5.22;;;16.40;98.50;;;;;;5054052;28;20041;-48
2023/06/14 06:53:29;;;;;;;10.35;5.53;;;16.40;98.40;;;;;;5055227;28;20079;-48
2023/06/14 06:56:08;;;;;;;15.32;4.78;;;16.50;98.30;;;;;;5054765;28;20099;-52
2023/06/14 06:58:35;;;;;;;13.93;5.28;;;16.50;98.50;;;;;;5054625;28;20073;-52
2023/06/14 07:01:02;;;;;;;19.63;5.90;;;16.60;98.50;;;;;;5054558;28;20115;-50
2023/06/14 07:03:29;;;;;;;16.50;6.10;;;16.60;98.60;;;;;;5055053;28;20033;-50
2023/06/14 07:05:55;;;;;;;17.10;5.97;;;16.70;98.50;;;;;;5053444;28;20072;-51
2023/06/14 07:08:22;;;;;;;12.18;5.55;;;16.70;98.60;;;;;;5054756;28;20049;-54
2023/06/14 07:10:49;;;;;;;20.23;6.15;;;16.70;98.60;;;;;;5054631;28;20041;-51
2023/06/14 07:13:16;;;;;;;12.25;5.40;;;16.70;98.70;;;;;;5055555;28;20199;-53
2023/06/14 07:15:43;;;;;;;18.10;5.72;;;16.60;98.90;;;;;;5054443;28;20515;-55
2023/06/14 07:18:09;;;;;;;16.73;6.30;;;16.80;98.90;;;;;;5053825;28;20041;-49
2023/06/14 07:20:38;;;;;;;17.83;6.45;;;16.90;98.80;;;;;;5051763;28;20055;-48
2023/06/14 07:23:05;;;;;;;17.52;6.25;;;17.00;99.00;;;;;;5054275;28;20049;-48
2023/06/14 07:25:32;;;;;;;15.88;6.13;;;17.00;98.70;;;;;;5054418;28;20408;-52
2023/06/14 07:27:59;;;;;;;19.77;6.30;;;17.10;98.60;;;;;;5054222;28;20511;-51
2023/06/14 07:30:26;;;;;;;13.65;5.53;;;17.10;98.80;;;;;;5054669;28;20415;-52
2023/06/14 07:32:54;;;;;;;16.52;5.88;;;17.10;98.60;;;;;;5054189;28;20045;-51
2023/06/14 07:35:21;;;;;;;16.80;6.00;;;17.20;98.70;;;;;;5054111;28;20041;-54
2023/06/14 07:37:48;;;;;;;15.07;6.38;;;17.20;98.70;;;;;;5054078;28;20044;-53
2023/06/14 07:40:15;;;;;;;23.42;6.25;;;17.30;98.70;;;;;;5054415;28;20100;-55
2023/06/14 07:42:42;;;;;;;14.00;5.97;;;17.40;98.70;;;;;;5054210;28;20468;-54
2023/06/14 07:45:08;;;;;;;17.40;5.63;;;17.50;98.70;;;;;;5054228;28;20037;-54
2023/06/14 07:47:35;;;;;;;15.77;5.60;;;17.60;98.60;;;;;;5053521;28;20037;-54
2023/06/14 07:50:03;;;;;;;21.42;5.72;;;17.70;98.60;;;;;;5054011;28;20128;-55
2023/06/14 07:52:30;;;;;;;21.23;6.25;;;17.70;98.60;;;;;;5053908;28;20515;-52
2023/06/14 07:54:58;;;;;;;15.77;6.10;;;17.80;98.30;;;;;;5054252;28;20503;-56
2023/06/14 07:57:25;;;;;;;17.05;6.40;;;17.80;98.10;;;;;;5053360;28;20055;-54
2023/06/14 07:59:51;;;;;;;17.27;6.50;;;17.90;98.40;;;;;;5052532;28;20056;-56
2023/06/14 08:02:18;;;;;;;20.95;6.40;;;17.90;98.50;;;;;;5052833;28;20530;-53
2023/06/14 08:04:46;;;;;;;22.75;6.93;;;18.00;98.30;;;;;;5053772;28;20048;-56
2023/06/14 08:07:13;;;;;;;38.13;7.82;;;18.10;98.20;;;;;;5053548;28;20049;-56
2023/06/14 08:09:40;;;;;;;35.63;7.95;;;18.20;98.20;;;;;;5053812;28;20045;-55
2023/06/14 08:12:07;;;;;;;16.17;6.55;;;18.30;98.20;;;;;;5053480;28;20053;-53
2023/06/14 08:14:34;;;;;;;16.55;6.88;;;18.40;97.90;;;;;;5053133;28;20491;-54
2023/06/14 08:17:01;;;;;;;13.80;6.88;;;18.40;97.90;;;;;;5051979;28;20041;-49
2023/06/14 08:19:28;;;;;;;20.75;7.10;;;18.40;97.80;;;;;;5052642;28;20037;-50
2023/06/14 08:21:56;;;;;;;14.75;6.90;;;18.50;97.90;;;;;;5053369;28;20048;-54
2023/06/14 08:24:26;;;;;;;16.17;6.28;;;18.60;97.80;;;;;;5053410;28;20495;-48
2023/06/14 08:26:54;;;;;;;16.17;6.30;;;18.60;97.70;;;;;;5053425;28;20480;-50
2023/06/14 08:29:21;;;;;;;17.58;6.43;;;18.70;97.80;;;;;;5052996;28;20037;-47
2023/06/14 08:31:47;;;;;;;14.00;5.93;;;18.70;97.40;;;;;;5053250;28;20047;-50
2023/06/14 08:34:14;;;;;;;15.27;6.32;;;18.70;97.70;;;;;;5053580;28;20044;-50
2023/06/14 08:36:42;;;;;;;16.38;5.95;;;18.80;97.60;;;;;;5053293;28;20513;-48
2023/06/14 08:39:09;;;;;;;16.50;6.13;;;18.90;97.50;;;;;;5053283;28;20399;-50
2023/06/14 08:41:35;;;;;;;14.07;5.72;;;19.00;97.50;;;;;;5053341;28;20064;-51
2023/06/14 08:44:02;;;;;;;14.00;6.07;;;19.10;97.30;;;;;;5052997;28;20041;-50
2023/06/14 08:46:29;;;;;;;16.65;5.57;;;19.20;97.30;;;;;;5052987;28;20037;-53
2023/06/14 08:48:59;;;;;;;13.15;5.72;;;19.30;97.30;;;;;;5052749;28;20048;-49
2023/06/14 08:51:26;;;;;;;15.55;5.88;;;19.40;97.10;;;;;;5053008;28;20049;-51
2023/06/14 08:53:57;;;;;;;14.93;6.00;;;19.40;96.90;;;;;;5052921;28;20112;-52
2023/06/14 08:56:25;;;;;;;17.60;5.60;;;19.50;96.70;;;;;;5052919;28;20049;-49
2023/06/14 08:58:52;;;;;;;15.63;5.70;;;19.50;96.90;;;;;;5052531;28;20056;-49
2023/06/14 09:01:19;;;;;;;20.58;6.05;;;19.60;96.90;;;;;;5052198;28;20037;-54
2023/06/14 09:03:48;;;;;;;14.15;5.75;;;19.70;96.60;;;;;;5052690;28;20041;-52
2023/06/14 09:06:15;;;;;;;12.10;5.60;;;19.80;96.20;;;;;;5052762;28;20094;-55
2023/06/14 09:08:42;;;;;;;15.40;6.03;;;19.80;96.00;;;;;;5052750;28;20119;-53
2023/06/14 09:11:09;;;;;;;18.05;6.32;;;19.90;95.90;;;;;;5052507;28;20102;-51
2023/06/14 09:13:36;;;;;;;16.08;5.97;;;20.00;96.00;;;;;;5052652;28;20048;-53
2023/06/14 09:16:03;;;;;;;16.73;5.60;;;20.00;96.20;;;;;;5052735;28;20052;-54
2023/06/14 09:18:30;;;;;;;13.40;5.95;;;20.00;95.80;;;;;;5052045;28;20041;-50
2023/06/14 09:20:57;;;;;;;16.35;5.85;;;20.20;95.50;;;;;;5052567;28;20060;-52
2023/06/14 09:23:24;;;;;;;15.18;6.35;;;20.20;95.40;;;;;;5052563;28;20045;-54
2023/06/14 09:25:50;;;;;;;11.27;5.45;;;20.30;95.20;;;;;;5056121;28;20045;-52
2023/06/14 09:28:17;;;;;;;14.02;5.95;;;20.30;95.30;;;;;;5056618;28;20492;-50
2023/06/14 09:30:44;;;;;;;11.52;5.22;;;20.30;95.20;;;;;;5056351;28;20045;-54
2023/06/14 09:33:11;;;;;;;15.88;5.78;;;20.40;95.10;;;;;;5056543;28;20051;-50
2023/06/14 09:35:38;;;;;;;13.73;5.72;;;20.50;95.10;;;;;;5056646;28;20060;-54
2023/06/14 09:38:06;;;;;;;19.35;6.00;;;20.60;95.10;;;;;;5056373;28;20128;-50
2023/06/14 09:40:33;;;;;;;13.02;5.72;;;20.70;95.00;;;;;;5056265;28;20075;-54
2023/06/14 09:43:00;;;;;;;14.30;5.65;;;20.70;94.80;;;;;;5056212;28;20044;-51
2023/06/14 09:45:29;;;;;;;15.25;5.90;;;20.80;95.00;;;;;;5054952;28;20074;-50
2023/06/14 09:47:56;;;;;;;14.68;5.47;;;20.90;94.70;;;;;;5055531;28;20064;-53
2023/06/14 09:50:33;;;;;;;17.83;6.47;;;21.00;94.70;;;;;;5056024;28;20506;-50
2023/06/14 09:53:00;;;;;;;20.35;5.47;;;21.00;93.90;;;;;;5055980;28;20072;-48
2023/06/14 09:55:27;;;;;;;16.80;5.63;;;21.10;94.20;;;;;;5055938;28;20052;-52
2023/06/14 09:57:54;;;;;;;16.05;5.85;;;21.10;94.40;;;;;;5055905;28;20115;-51
2023/06/14 10:00:21;;;;;;;12.60;6.03;;;21.30;94.30;;;;;;5047703;28;20041;-53
2023/06/14 10:02:50;;;;;;;15.43;5.65;;;21.40;94.10;;;;;;5054891;28;20424;-51
2023/06/14 10:05:17;;;;;;;12.40;5.97;;;21.40;94.20;;;;;;5055965;28;20065;-53
2023/06/14 10:07:44;;;;;;;17.90;8.52;;;21.60;94.30;;;;;;5055885;28;20411;-51
2023/06/14 10:10:11;;;;;;;16.23;6.25;;;21.70;93.60;;;;;;5055960;28;20045;-53
2023/06/14 10:12:37;;;;;;;14.63;5.95;;;21.70;93.40;;;;;;5055546;28;20065;-51
2023/06/14 10:15:05;;;;;;;13.73;6.00;;;21.70;93.60;;;;;;5055762;28;20040;-52
2023/06/14 10:17:32;;;;;;;16.15;6.07;;;21.80;92.80;;;;;;5055788;28;20463;-50
2023/06/14 10:19:59;;;;;;;16.13;5.78;;;21.80;93.10;;;;;;5055057;28;20045;-54
2023/06/14 10:22:25;;;;;;;14.63;5.72;;;21.80;92.80;;;;;;5055444;28;20064;-51
2023/06/14 10:24:52;;;;;;;14.93;5.53;;;21.90;92.80;;;;;;5055590;28;20068;-52
2023/06/14 10:27:23;;;;;;;13.13;5.35;;;22.00;92.50;;;;;;5055607;28;20037;-54
2023/06/14 10:29:50;;;;;;;12.00;5.60;;;22.10;92.50;;;;;;5055646;28;20041;-55
2023/06/14 10:32:18;;;;;;;13.18;5.40;;;22.10;92.60;;;;;;5054885;28;20045;-54
2023/06/14 10:34:46;;;;;;;12.63;5.28;;;22.20;92.50;;;;;;5054843;28;20049;-50
2023/06/14 10:37:13;;;;;;;13.80;5.38;;;22.30;92.20;;;;;;5054015;28;20361;-55
2023/06/14 10:39:43;;;;;;;16.83;5.63;;;22.50;92.00;;;;;;5054583;28;20496;-54
2023/06/14 10:42:10;;;;;;;14.07;5.80;;;22.50;91.80;;;;;;5054579;28;20036;-49
2023/06/14 10:44:37;;;;;;;12.05;5.72;;;22.50;91.80;;;;;;5053495;28;20064;-49
2023/06/14 10:47:04;;;;;;;14.63;5.45;;;22.60;91.90;;;;;;5054553;28;20044;-54
2023/06/14 10:49:31;;;;;;;14.25;6.25;;;22.60;91.30;;;;;;5053144;28;20492;-53
2023/06/14 10:51:58;;;;;;;13.13;5.63;;;22.70;91.10;;;;;;5054907;28;20075;-53
2023/06/14 10:54:27;;;;;;;15.90;6.93;;;22.80;91.30;;;;;;5054880;28;20510;-54
2023/06/14 10:56:54;;;;;;;14.65;5.43;;;22.80;91.30;;;;;;5053711;28;20055;-54
2023/06/14 10:59:21;;;;;;;12.63;5.70;;;22.90;91.00;;;;;;5054704;28;20080;-51
2023/06/14 11:01:48;;;;;;;15.30;6.10;;;23.00;90.90;;;;;;5055090;28;20071;-53
2023/06/14 11:04:15;;;;;;;12.38;5.53;;;23.10;90.40;;;;;;5054570;28;20079;-53
2023/06/14 11:06:42;;;;;;;12.88;5.30;;;23.20;90.90;;;;;;5055147;28;20041;-50
2023/06/14 11:09:09;;;;;;;15.02;5.30;;;23.20;90.90;;;;;;5054917;28;20454;-56
2023/06/14 11:11:35;;;;;;;11.25;5.47;;;23.20;90.60;;;;;;5054918;28;20120;-56
2023/06/14 11:14:02;;;;;;;13.13;5.60;;;23.20;90.00;;;;;;5054323;28;20447;-51
2023/06/14 11:16:29;;;;;;;13.65;5.68;;;23.30;90.40;;;;;;5054653;28;20068;-50
2023/06/14 11:18:56;;;;;;;17.30;6.05;;;23.50;90.90;;;;;;5053977;28;20033;-51
2023/06/14 11:21:25;;;;;;;13.40;5.20;;;23.50;90.90;;;;;;5054542;28;20044;-50
2023/06/14 11:23:56;;;;;;;12.77;6.07;;;23.60;90.40;;;;;;5054376;28;20064;-54
2023/06/14 11:26:22;;;;;;;12.77;4.95;;;23.60;90.00;;;;;;5054430;28;20037;-55
2023/06/14 11:28:49;;;;;;;9.48;5.53;;;23.70;90.30;;;;;;5054291;28;20049;-50
2023/06/14 11:31:16;;;;;;;20.80;6.03;;;23.70;89.70;;;;;;5053829;28;20048;-54
2023/06/14 11:33:43;;;;;;;14.25;5.00;;;23.80;90.00;;;;;;5054535;28;20385;-53
2023/06/14 11:36:10;;;;;;;12.55;4.93;;;23.80;89.20;;;;;;5055014;28;20053;-54
2023/06/14 11:38:37;;;;;;;11.73;5.10;;;23.90;90.00;;;;;;5054599;28;20041;-53
2023/06/14 11:41:04;;;;;;;12.63;5.18;;;23.90;89.40;;;;;;5054004;28;20041;-53
2023/06/14 11:43:33;;;;;;;14.30;5.15;;;24.00;88.50;;;;;;5054260;28;20377;-49
2023/06/14 11:46:00;;;;;;;11.32;5.15;;;24.10;88.80;;;;;;5054463;28;20127;-54
2023/06/14 11:48:34;;;;;;;20.50;5.55;;;24.20;87.90;;;;;;5053246;28;20028;-51
2023/06/14 11:51:01;;;;;;;12.68;4.93;;;24.30;89.10;;;;;;5048129;28;20447;-50
2023/06/14 11:53:28;;;;;;;13.27;5.20;;;24.20;89.20;;;;;;5047901;28;20041;-52
2023/06/14 11:55:55;;;;;;;12.25;5.35;;;24.30;89.00;;;;;;5053968;28;20032;-52
2023/06/14 11:58:22;;;;;;;12.75;5.13;;;24.30;86.20;;;;;;5054166;28;20053;-52
2023/06/14 12:00:48;;;;;;;13.48;5.32;;;24.40;86.30;;;;;;5054184;28;20044;-53
2023/06/14 12:03:15;;;;;;;15.82;5.20;;;24.50;88.10;;;;;;5053636;28;20041;-51
2023/06/14 12:05:43;;;;;;;11.73;5.20;;;24.60;87.60;;;;;;5053939;28;20037;-53
2023/06/14 12:08:16;;;;;;;13.68;4.80;;;24.70;88.20;;;;;;5053845;28;20124;-53
2023/06/14 12:10:43;;;;;;;15.90;5.18;;;24.70;86.60;;;;;;5053824;28;20083;-51
2023/06/14 12:13:10;;;;;;;15.88;4.75;;;24.70;86.80;;;;;;5053956;28;20047;-55
2023/06/14 12:15:37;;;;;;;15.60;5.25;;;24.70;87.70;;;;;;5053430;28;20095;-55
2023/06/14 12:18:06;;;;;;;15.10;4.25;;;24.80;87.50;;;;;;5053797;28;20045;-50
2023/06/14 12:20:34;;;;;;;16.98;5.38;;;24.80;86.90;;;;;;5053856;28;20041;-55
2023/06/14 12:23:02;;;;;;;14.15;5.18;;;24.80;88.10;;;;;;5053137;28;20057;-49
2023/06/14 12:25:31;;;;;;;10.80;4.88;;;24.80;87.00;;;;;;5053662;28;20079;-49
2023/06/14 12:27:57;;;;;;;14.70;4.70;;;24.80;86.60;;;;;;5053139;28;20459;-53
2023/06/14 12:30:24;;;;;;;17.63;5.32;;;24.80;87.10;;;;;;5053753;28;20498;-56
2023/06/14 12:32:51;;;;;;;15.13;5.00;;;24.90;86.60;;;;;;5053555;28;20075;-56
2023/06/14 12:35:18;;;;;;;10.10;4.70;;;25.00;86.90;;;;;;5053474;28;20037;-54
2023/06/14 12:37:45;;;;;;;10.70;4.78;;;25.00;86.50;;;;;;5053203;28;20052;-50
2023/06/14 12:40:12;;;;;;;16.40;4.70;;;25.00;85.90;;;;;;5053771;28;20076;-54